sensor_id;sensor_type;location;lat;lon;timestamp;P1;durP1;ratioP1;P2;durP2;ratioP2
13520;SDS011;6832;51.186;3.236;2022-08-16T00:01:10;12.90;;;10.33;;
13520;SDS011;6832;51.186;3.236;2022-08-16T00:03:39;19.90;;;12.33;;
13520;SDS011;6832;51.186;3.236;2022-08-16T00:06:06;13.47;;;10.33;;
13520;SDS011;6832;51.186;3.236;2022-08-16T00:08:52;14.03;;;11.43;;
13520;SDS011;6832;51.186;3.236;2022-08-16T00:11:22;13.20;;;10.50;;
13520;SDS011;6832;51.186;3.236;2022-08-16T00:13:55;13.70;;;10.40;;
13520;SDS011;6832;51.186;3.236;2022-08-16T00:16:31;13.57;;;10.53;;
13520;SDS011;6832;51.186;3.236;2022-08-16T00:18:59;14.63;;;11.33;;
13520;SDS011;6832;51.186;3.236;2022-08-16T00:21:28;17.97;;;11.20;;
13520;SDS011;6832;51.186;3.236;2022-08-16T00:23:56;16.23;;;11.83;;
13520;SDS011;6832;51.186;3.236;2022-08-16T00:26:26;14.40;;;11.60;;
13520;SDS011;6832;51.186;3.236;2022-08-16T00:28:59;12.20;;;10.93;;
13520;SDS011;6832;51.186;3.236;2022-08-16T00:31:28;16.67;;;11.30;;
13520;SDS011;6832;51.186;3.236;2022-08-16T00:34:09;13.23;;;10.57;;
13520;SDS011;6832;51.186;3.236;2022-08-16T00:36:37;19.03;;;12.80;;
13520;SDS011;6832;51.186;3.236;2022-08-16T00:39:07;13.10;;;11.67;;
13520;SDS011;6832;51.186;3.236;2022-08-16T00:41:37;16.53;;;11.67;;
13520;SDS011;6832;51.186;3.236;2022-08-16T00:44:08;13.63;;;11.50;;
13520;SDS011;6832;51.186;3.236;2022-08-16T00:46:38;18.43;;;12.37;;
13520;SDS011;6832;51.186;3.236;2022-08-16T00:49:16;16.80;;;12.20;;
13520;SDS011;6832;51.186;3.236;2022-08-16T00:51:46;18.90;;;12.73;;
13520;SDS011;6832;51.186;3.236;2022-08-16T00:54:16;16.77;;;11.17;;
13520;SDS011;6832;51.186;3.236;2022-08-16T00:56:46;13.43;;;11.83;;
13520;SDS011;6832;51.186;3.236;2022-08-16T00:59:19;15.27;;;11.90;;
13520;SDS011;6832;51.186;3.236;2022-08-16T01:01:51;16.53;;;12.20;;
13520;SDS011;6832;51.186;3.236;2022-08-16T01:04:28;14.13;;;11.87;;
13520;SDS011;6832;51.186;3.236;2022-08-16T01:06:57;13.90;;;12.27;;
13520;SDS011;6832;51.186;3.236;2022-08-16T01:09:27;14.60;;;11.70;;
13520;SDS011;6832;51.186;3.236;2022-08-16T01:11:57;14.17;;;11.77;;
13520;SDS011;6832;51.186;3.236;2022-08-16T01:14:27;12.83;;;11.53;;
13520;SDS011;6832;51.186;3.236;2022-08-16T01:16:57;15.73;;;11.93;;
13520;SDS011;6832;51.186;3.236;2022-08-16T01:19:28;14.30;;;11.87;;
13520;SDS011;6832;51.186;3.236;2022-08-16T01:22:05;18.03;;;12.80;;
13520;SDS011;6832;51.186;3.236;2022-08-16T01:24:45;19.10;;;13.97;;
13520;SDS011;6832;51.186;3.236;2022-08-16T01:27:18;18.07;;;13.67;;
13520;SDS011;6832;51.186;3.236;2022-08-16T01:29:48;15.17;;;12.87;;
13520;SDS011;6832;51.186;3.236;2022-08-16T01:32:23;16.07;;;12.13;;
13520;SDS011;6832;51.186;3.236;2022-08-16T01:34:54;15.50;;;12.33;;
13520;SDS011;6832;51.186;3.236;2022-08-16T01:37:23;14.40;;;12.90;;
13520;SDS011;6832;51.186;3.236;2022-08-16T01:39:55;22.60;;;14.27;;
13520;SDS011;6832;51.186;3.236;2022-08-16T01:42:29;15.50;;;11.90;;
13520;SDS011;6832;51.186;3.236;2022-08-16T01:44:59;16.07;;;13.17;;
13520;SDS011;6832;51.186;3.236;2022-08-16T01:47:26;16.00;;;12.40;;
13520;SDS011;6832;51.186;3.236;2022-08-16T01:50:06;15.90;;;12.57;;
13520;SDS011;6832;51.186;3.236;2022-08-16T01:52:46;15.23;;;12.93;;
13520;SDS011;6832;51.186;3.236;2022-08-16T01:55:21;18.83;;;13.60;;
13520;SDS011;6832;51.186;3.236;2022-08-16T01:57:50;16.20;;;12.30;;
13520;SDS011;6832;51.186;3.236;2022-08-16T02:00:25;17.77;;;13.30;;
13520;SDS011;6832;51.186;3.236;2022-08-16T02:02:55;18.20;;;13.93;;
13520;SDS011;6832;51.186;3.236;2022-08-16T02:07:58;13.77;;;12.27;;
13520;SDS011;6832;51.186;3.236;2022-08-16T02:10:31;19.10;;;14.23;;
13520;SDS011;6832;51.186;3.236;2022-08-16T02:13:00;18.60;;;14.03;;
13520;SDS011;6832;51.186;3.236;2022-08-16T02:15:31;16.17;;;13.53;;
13520;SDS011;6832;51.186;3.236;2022-08-16T02:18:03;15.93;;;13.20;;
13520;SDS011;6832;51.186;3.236;2022-08-16T02:20:32;20.50;;;14.47;;
13520;SDS011;6832;51.186;3.236;2022-08-16T02:23:02;16.17;;;12.70;;
13520;SDS011;6832;51.186;3.236;2022-08-16T02:25:33;20.40;;;13.67;;
13520;SDS011;6832;51.186;3.236;2022-08-16T02:28:03;15.40;;;13.40;;
13520;SDS011;6832;51.186;3.236;2022-08-16T02:30:33;18.33;;;14.53;;
13520;SDS011;6832;51.186;3.236;2022-08-16T02:33:03;16.80;;;13.77;;
13520;SDS011;6832;51.186;3.236;2022-08-16T02:35:32;17.00;;;13.60;;
13520;SDS011;6832;51.186;3.236;2022-08-16T02:38:02;19.60;;;13.87;;
13520;SDS011;6832;51.186;3.236;2022-08-16T02:40:34;15.00;;;13.47;;
13520;SDS011;6832;51.186;3.236;2022-08-16T02:43:07;16.47;;;14.00;;
13520;SDS011;6832;51.186;3.236;2022-08-16T02:45:35;19.27;;;14.10;;
13520;SDS011;6832;51.186;3.236;2022-08-16T02:48:02;19.10;;;13.67;;
13520;SDS011;6832;51.186;3.236;2022-08-16T02:50:37;21.50;;;14.63;;
13520;SDS011;6832;51.186;3.236;2022-08-16T02:53:05;15.00;;;13.40;;
13520;SDS011;6832;51.186;3.236;2022-08-16T02:55:36;16.43;;;12.57;;
13520;SDS011;6832;51.186;3.236;2022-08-16T02:58:22;18.23;;;13.43;;
13520;SDS011;6832;51.186;3.236;2022-08-16T03:00:58;14.97;;;13.27;;
13520;SDS011;6832;51.186;3.236;2022-08-16T03:03:27;16.93;;;12.87;;
13520;SDS011;6832;51.186;3.236;2022-08-16T03:05:57;18.87;;;13.43;;
13520;SDS011;6832;51.186;3.236;2022-08-16T03:08:35;14.17;;;12.67;;
13520;SDS011;6832;51.186;3.236;2022-08-16T03:11:06;15.37;;;12.60;;
13520;SDS011;6832;51.186;3.236;2022-08-16T03:13:34;17.73;;;13.47;;
13520;SDS011;6832;51.186;3.236;2022-08-16T03:16:04;16.07;;;12.90;;
13520;SDS011;6832;51.186;3.236;2022-08-16T03:18:39;17.73;;;13.73;;
13520;SDS011;6832;51.186;3.236;2022-08-16T03:21:12;20.33;;;13.10;;
13520;SDS011;6832;51.186;3.236;2022-08-16T03:23:41;16.30;;;13.27;;
13520;SDS011;6832;51.186;3.236;2022-08-16T03:26:17;15.97;;;13.60;;
13520;SDS011;6832;51.186;3.236;2022-08-16T03:28:46;16.23;;;12.70;;
13520;SDS011;6832;51.186;3.236;2022-08-16T03:31:13;17.13;;;12.87;;
13520;SDS011;6832;51.186;3.236;2022-08-16T03:33:41;17.30;;;13.17;;
13520;SDS011;6832;51.186;3.236;2022-08-16T03:36:09;19.03;;;12.73;;
13520;SDS011;6832;51.186;3.236;2022-08-16T03:38:39;20.73;;;14.63;;
13520;SDS011;6832;51.186;3.236;2022-08-16T03:41:06;16.13;;;13.90;;
13520;SDS011;6832;51.186;3.236;2022-08-16T03:43:41;17.47;;;13.17;;
13520;SDS011;6832;51.186;3.236;2022-08-16T03:46:14;19.60;;;14.40;;
13520;SDS011;6832;51.186;3.236;2022-08-16T03:48:46;19.30;;;14.00;;
13520;SDS011;6832;51.186;3.236;2022-08-16T03:51:23;14.67;;;12.30;;
13520;SDS011;6832;51.186;3.236;2022-08-16T03:53:55;15.20;;;12.90;;
13520;SDS011;6832;51.186;3.236;2022-08-16T03:56:25;18.97;;;13.30;;
13520;SDS011;6832;51.186;3.236;2022-08-16T03:59:03;14.80;;;13.17;;
13520;SDS011;6832;51.186;3.236;2022-08-16T04:01:35;23.73;;;14.07;;
13520;SDS011;6832;51.186;3.236;2022-08-16T04:04:16;26.63;;;15.40;;
13520;SDS011;6832;51.186;3.236;2022-08-16T04:06:44;20.07;;;13.93;;
13520;SDS011;6832;51.186;3.236;2022-08-16T04:09:15;15.90;;;12.73;;
13520;SDS011;6832;51.186;3.236;2022-08-16T04:11:50;16.73;;;14.00;;
13520;SDS011;6832;51.186;3.236;2022-08-16T04:14:28;16.43;;;12.57;;
13520;SDS011;6832;51.186;3.236;2022-08-16T04:16:57;16.93;;;13.23;;
13520;SDS011;6832;51.186;3.236;2022-08-16T04:19:27;18.60;;;14.03;;
13520;SDS011;6832;51.186;3.236;2022-08-16T04:21:55;18.13;;;13.97;;
13520;SDS011;6832;51.186;3.236;2022-08-16T04:24:27;21.00;;;14.20;;
13520;SDS011;6832;51.186;3.236;2022-08-16T04:27:00;22.73;;;14.40;;
13520;SDS011;6832;51.186;3.236;2022-08-16T04:29:42;15.47;;;12.87;;
13520;SDS011;6832;51.186;3.236;2022-08-16T04:32:11;19.50;;;13.10;;
13520;SDS011;6832;51.186;3.236;2022-08-16T04:34:50;22.53;;;13.93;;
13520;SDS011;6832;51.186;3.236;2022-08-16T04:37:21;18.23;;;12.93;;
13520;SDS011;6832;51.186;3.236;2022-08-16T04:39:55;17.43;;;13.50;;
13520;SDS011;6832;51.186;3.236;2022-08-16T04:42:23;16.33;;;11.90;;
13520;SDS011;6832;51.186;3.236;2022-08-16T04:44:57;19.57;;;15.10;;
13520;SDS011;6832;51.186;3.236;2022-08-16T04:47:37;21.37;;;13.97;;
13520;SDS011;6832;51.186;3.236;2022-08-16T04:50:10;19.40;;;14.23;;
13520;SDS011;6832;51.186;3.236;2022-08-16T04:52:44;20.03;;;13.57;;
13520;SDS011;6832;51.186;3.236;2022-08-16T04:55:14;20.97;;;14.83;;
13520;SDS011;6832;51.186;3.236;2022-08-16T04:57:48;20.47;;;14.97;;
13520;SDS011;6832;51.186;3.236;2022-08-16T05:00:28;19.67;;;13.90;;
13520;SDS011;6832;51.186;3.236;2022-08-16T05:03:03;19.77;;;13.10;;
13520;SDS011;6832;51.186;3.236;2022-08-16T05:05:31;16.40;;;13.47;;
13520;SDS011;6832;51.186;3.236;2022-08-16T05:08:05;16.90;;;13.40;;
13520;SDS011;6832;51.186;3.236;2022-08-16T05:10:36;15.53;;;13.70;;
13520;SDS011;6832;51.186;3.236;2022-08-16T05:13:10;19.70;;;14.30;;
13520;SDS011;6832;51.186;3.236;2022-08-16T05:15:39;18.53;;;14.60;;
13520;SDS011;6832;51.186;3.236;2022-08-16T05:18:06;17.47;;;13.73;;
13520;SDS011;6832;51.186;3.236;2022-08-16T05:20:35;22.90;;;14.13;;
13520;SDS011;6832;51.186;3.236;2022-08-16T05:23:04;19.80;;;14.57;;
13520;SDS011;6832;51.186;3.236;2022-08-16T05:25:38;17.10;;;12.90;;
13520;SDS011;6832;51.186;3.236;2022-08-16T05:28:06;20.20;;;14.70;;
13520;SDS011;6832;51.186;3.236;2022-08-16T05:33:28;20.03;;;14.60;;
13520;SDS011;6832;51.186;3.236;2022-08-16T05:36:10;21.10;;;13.57;;
13520;SDS011;6832;51.186;3.236;2022-08-16T05:41:12;20.23;;;13.43;;
13520;SDS011;6832;51.186;3.236;2022-08-16T05:43:40;22.20;;;14.77;;
13520;SDS011;6832;51.186;3.236;2022-08-16T05:46:29;22.37;;;14.90;;
13520;SDS011;6832;51.186;3.236;2022-08-16T05:49:08;19.10;;;13.83;;
13520;SDS011;6832;51.186;3.236;2022-08-16T05:51:50;22.20;;;14.70;;
13520;SDS011;6832;51.186;3.236;2022-08-16T05:54:19;18.57;;;14.63;;
13520;SDS011;6832;51.186;3.236;2022-08-16T05:57:07;20.93;;;13.73;;
13520;SDS011;6832;51.186;3.236;2022-08-16T05:59:38;20.23;;;15.73;;
13520;SDS011;6832;51.186;3.236;2022-08-16T06:02:16;18.20;;;13.43;;
13520;SDS011;6832;51.186;3.236;2022-08-16T06:04:52;17.23;;;14.33;;
13520;SDS011;6832;51.186;3.236;2022-08-16T06:07:32;22.70;;;15.10;;
13520;SDS011;6832;51.186;3.236;2022-08-16T06:10:02;17.50;;;13.80;;
13520;SDS011;6832;51.186;3.236;2022-08-16T06:12:32;17.23;;;13.30;;
13520;SDS011;6832;51.186;3.236;2022-08-16T06:15:02;16.83;;;13.40;;
13520;SDS011;6832;51.186;3.236;2022-08-16T06:17:41;16.43;;;12.63;;
13520;SDS011;6832;51.186;3.236;2022-08-16T06:20:15;14.40;;;12.20;;
13520;SDS011;6832;51.186;3.236;2022-08-16T06:22:46;15.43;;;12.37;;
13520;SDS011;6832;51.186;3.236;2022-08-16T06:25:15;23.17;;;14.43;;
13520;SDS011;6832;51.186;3.236;2022-08-16T06:27:42;18.30;;;12.63;;
13520;SDS011;6832;51.186;3.236;2022-08-16T06:30:16;15.90;;;13.27;;
13520;SDS011;6832;51.186;3.236;2022-08-16T06:32:57;17.23;;;13.20;;
13520;SDS011;6832;51.186;3.236;2022-08-16T06:35:44;15.60;;;13.30;;
13520;SDS011;6832;51.186;3.236;2022-08-16T06:38:20;17.17;;;12.30;;
13520;SDS011;6832;51.186;3.236;2022-08-16T06:43:50;15.63;;;12.60;;
13520;SDS011;6832;51.186;3.236;2022-08-16T06:46:25;17.27;;;13.33;;
13520;SDS011;6832;51.186;3.236;2022-08-16T06:49:13;11.97;;;10.27;;
13520;SDS011;6832;51.186;3.236;2022-08-16T06:51:46;10.27;;;8.87;;
13520;SDS011;6832;51.186;3.236;2022-08-16T06:54:37;12.80;;;11.47;;
13520;SDS011;6832;51.186;3.236;2022-08-16T06:57:20;24.10;;;15.00;;
13520;SDS011;6832;51.186;3.236;2022-08-16T06:59:54;13.70;;;11.43;;
13520;SDS011;6832;51.186;3.236;2022-08-16T07:02:40;13.00;;;11.63;;
13520;SDS011;6832;51.186;3.236;2022-08-16T07:05:15;19.30;;;13.23;;
13520;SDS011;6832;51.186;3.236;2022-08-16T07:07:46;18.40;;;12.30;;
13520;SDS011;6832;51.186;3.236;2022-08-16T07:10:23;16.43;;;12.77;;
13520;SDS011;6832;51.186;3.236;2022-08-16T07:13:07;15.13;;;11.97;;
13520;SDS011;6832;51.186;3.236;2022-08-16T07:16:11;15.17;;;11.87;;
13520;SDS011;6832;51.186;3.236;2022-08-16T07:19:29;17.83;;;12.60;;
13520;SDS011;6832;51.186;3.236;2022-08-16T07:29:14;13.50;;;12.03;;
13520;SDS011;6832;51.186;3.236;2022-08-16T07:36:54;14.27;;;11.33;;
13520;SDS011;6832;51.186;3.236;2022-08-16T07:39:30;15.27;;;11.97;;
13520;SDS011;6832;51.186;3.236;2022-08-16T07:42:06;12.37;;;11.17;;
13520;SDS011;6832;51.186;3.236;2022-08-16T07:44:54;17.83;;;11.67;;
13520;SDS011;6832;51.186;3.236;2022-08-16T07:47:33;15.47;;;11.50;;
13520;SDS011;6832;51.186;3.236;2022-08-16T07:50:28;12.10;;;9.70;;
13520;SDS011;6832;51.186;3.236;2022-08-16T07:52:58;12.30;;;10.07;;
13520;SDS011;6832;51.186;3.236;2022-08-16T07:58:40;12.77;;;11.03;;
13520;SDS011;6832;51.186;3.236;2022-08-16T08:01:32;14.63;;;11.00;;
13520;SDS011;6832;51.186;3.236;2022-08-16T08:04:22;16.00;;;11.73;;
13520;SDS011;6832;51.186;3.236;2022-08-16T08:07:05;11.57;;;10.33;;
13520;SDS011;6832;51.186;3.236;2022-08-16T08:09:39;13.13;;;11.17;;
13520;SDS011;6832;51.186;3.236;2022-08-16T08:12:09;12.60;;;11.07;;
13520;SDS011;6832;51.186;3.236;2022-08-16T08:14:44;11.47;;;10.20;;
13520;SDS011;6832;51.186;3.236;2022-08-16T08:17:22;20.57;;;12.20;;
13520;SDS011;6832;51.186;3.236;2022-08-16T08:20:10;18.13;;;12.53;;
13520;SDS011;6832;51.186;3.236;2022-08-16T08:22:43;12.67;;;10.70;;
13520;SDS011;6832;51.186;3.236;2022-08-16T08:25:13;14.97;;;10.90;;
13520;SDS011;6832;51.186;3.236;2022-08-16T08:27:56;13.17;;;11.43;;
13520;SDS011;6832;51.186;3.236;2022-08-16T08:30:27;12.73;;;9.97;;
13520;SDS011;6832;51.186;3.236;2022-08-16T08:33:20;13.43;;;10.70;;
13520;SDS011;6832;51.186;3.236;2022-08-16T08:35:54;14.07;;;12.27;;
13520;SDS011;6832;51.186;3.236;2022-08-16T08:38:28;11.17;;;9.57;;
13520;SDS011;6832;51.186;3.236;2022-08-16T08:41:17;12.57;;;11.20;;
13520;SDS011;6832;51.186;3.236;2022-08-16T08:43:56;12.47;;;10.43;;
13520;SDS011;6832;51.186;3.236;2022-08-16T08:46:34;15.17;;;11.83;;
13520;SDS011;6832;51.186;3.236;2022-08-16T08:52:08;16.33;;;11.57;;
13520;SDS011;6832;51.186;3.236;2022-08-16T08:55:05;12.80;;;9.37;;
13520;SDS011;6832;51.186;3.236;2022-08-16T08:57:48;12.40;;;11.10;;
13520;SDS011;6832;51.186;3.236;2022-08-16T09:00:27;13.47;;;10.77;;
13520;SDS011;6832;51.186;3.236;2022-08-16T09:02:58;14.17;;;11.00;;
13520;SDS011;6832;51.186;3.236;2022-08-16T09:08:37;17.90;;;9.67;;
13520;SDS011;6832;51.186;3.236;2022-08-16T09:11:59;13.03;;;9.67;;
13520;SDS011;6832;51.186;3.236;2022-08-16T09:14:34;9.73;;;8.73;;
13520;SDS011;6832;51.186;3.236;2022-08-16T09:17:37;9.47;;;8.00;;
13520;SDS011;6832;51.186;3.236;2022-08-16T09:24:15;9.33;;;7.97;;
13520;SDS011;6832;51.186;3.236;2022-08-16T09:32:52;9.53;;;8.13;;
13520;SDS011;6832;51.186;3.236;2022-08-16T09:35:23;11.17;;;8.60;;
13520;SDS011;6832;51.186;3.236;2022-08-16T09:38:01;10.53;;;7.97;;
13520;SDS011;6832;51.186;3.236;2022-08-16T09:40:38;13.70;;;9.70;;
13520;SDS011;6832;51.186;3.236;2022-08-16T09:50:22;12.43;;;8.17;;
13520;SDS011;6832;51.186;3.236;2022-08-16T09:56:30;11.37;;;8.37;;
13520;SDS011;6832;51.186;3.236;2022-08-16T09:59:14;10.70;;;7.50;;
13520;SDS011;6832;51.186;3.236;2022-08-16T10:24:12;11.33;;;7.73;;
13520;SDS011;6832;51.186;3.236;2022-08-16T10:27:18;11.23;;;7.77;;
13520;SDS011;6832;51.186;3.236;2022-08-16T10:46:28;10.30;;;6.50;;
13520;SDS011;6832;51.186;3.236;2022-08-16T10:49:35;11.10;;;6.90;;
13520;SDS011;6832;51.186;3.236;2022-08-16T10:52:03;7.37;;;5.47;;
13520;SDS011;6832;51.186;3.236;2022-08-16T10:54:31;8.80;;;6.20;;
13520;SDS011;6832;51.186;3.236;2022-08-16T10:56:59;11.13;;;6.03;;
13520;SDS011;6832;51.186;3.236;2022-08-16T10:59:30;10.97;;;5.63;;
13520;SDS011;6832;51.186;3.236;2022-08-16T11:01:59;9.67;;;5.73;;
13520;SDS011;6832;51.186;3.236;2022-08-16T11:04:27;8.97;;;5.40;;
13520;SDS011;6832;51.186;3.236;2022-08-16T11:06:55;11.13;;;5.80;;
13520;SDS011;6832;51.186;3.236;2022-08-16T11:09:22;11.47;;;5.80;;
13520;SDS011;6832;51.186;3.236;2022-08-16T11:11:49;7.97;;;5.90;;
13520;SDS011;6832;51.186;3.236;2022-08-16T11:14:16;8.17;;;4.73;;
13520;SDS011;6832;51.186;3.236;2022-08-16T11:16:45;8.33;;;5.40;;
13520;SDS011;6832;51.186;3.236;2022-08-16T11:19:13;8.13;;;5.63;;
13520;SDS011;6832;51.186;3.236;2022-08-16T11:21:42;9.17;;;5.30;;
13520;SDS011;6832;51.186;3.236;2022-08-16T11:24:16;7.27;;;4.17;;
13520;SDS011;6832;51.186;3.236;2022-08-16T11:26:43;8.17;;;4.90;;
13520;SDS011;6832;51.186;3.236;2022-08-16T11:29:11;6.10;;;3.93;;
13520;SDS011;6832;51.186;3.236;2022-08-16T11:34:26;7.00;;;4.10;;
13520;SDS011;6832;51.186;3.236;2022-08-16T11:36:54;13.23;;;7.13;;
13520;SDS011;6832;51.186;3.236;2022-08-16T11:39:22;12.83;;;5.40;;
13520;SDS011;6832;51.186;3.236;2022-08-16T11:41:49;11.10;;;5.20;;
13520;SDS011;6832;51.186;3.236;2022-08-16T11:44:17;10.60;;;5.20;;
13520;SDS011;6832;51.186;3.236;2022-08-16T11:46:45;8.57;;;4.63;;
13520;SDS011;6832;51.186;3.236;2022-08-16T11:49:14;9.23;;;5.40;;
13520;SDS011;6832;51.186;3.236;2022-08-16T11:51:42;12.63;;;6.60;;
13520;SDS011;6832;51.186;3.236;2022-08-16T11:54:12;7.43;;;4.43;;
13520;SDS011;6832;51.186;3.236;2022-08-16T11:56:41;5.63;;;4.17;;
13520;SDS011;6832;51.186;3.236;2022-08-16T11:59:08;4.83;;;4.07;;
13520;SDS011;6832;51.186;3.236;2022-08-16T12:01:35;7.33;;;4.27;;
13520;SDS011;6832;51.186;3.236;2022-08-16T12:04:04;11.27;;;5.37;;
13520;SDS011;6832;51.186;3.236;2022-08-16T12:06:34;9.93;;;4.90;;
13520;SDS011;6832;51.186;3.236;2022-08-16T12:09:03;8.57;;;4.17;;
13520;SDS011;6832;51.186;3.236;2022-08-16T12:11:35;7.03;;;4.60;;
13520;SDS011;6832;51.186;3.236;2022-08-16T12:14:04;5.03;;;3.93;;
13520;SDS011;6832;51.186;3.236;2022-08-16T12:16:32;6.90;;;4.80;;
13520;SDS011;6832;51.186;3.236;2022-08-16T12:19:00;10.00;;;5.20;;
13520;SDS011;6832;51.186;3.236;2022-08-16T12:21:29;6.83;;;4.67;;
13520;SDS011;6832;51.186;3.236;2022-08-16T12:23:57;7.33;;;4.83;;
13520;SDS011;6832;51.186;3.236;2022-08-16T12:26:24;7.73;;;4.93;;
13520;SDS011;6832;51.186;3.236;2022-08-16T12:28:51;12.23;;;6.47;;
13520;SDS011;6832;51.186;3.236;2022-08-16T12:31:19;10.17;;;5.47;;
13520;SDS011;6832;51.186;3.236;2022-08-16T12:33:49;6.78;;;4.50;;
13520;SDS011;6832;51.186;3.236;2022-08-16T12:36:18;6.35;;;4.15;;
13520;SDS011;6832;51.186;3.236;2022-08-16T12:38:50;5.63;;;4.22;;
13520;SDS011;6832;51.186;3.236;2022-08-16T12:41:20;5.38;;;3.97;;
13520;SDS011;6832;51.186;3.236;2022-08-16T12:43:48;6.60;;;3.88;;
13520;SDS011;6832;51.186;3.236;2022-08-16T12:46:19;6.32;;;4.50;;
13520;SDS011;6832;51.186;3.236;2022-08-16T12:48:46;10.65;;;4.40;;
13520;SDS011;6832;51.186;3.236;2022-08-16T12:51:23;6.10;;;3.95;;
13520;SDS011;6832;51.186;3.236;2022-08-16T12:53:57;4.75;;;3.80;;
13520;SDS011;6832;51.186;3.236;2022-08-16T12:56:28;7.13;;;4.82;;
13520;SDS011;6832;51.186;3.236;2022-08-16T12:58:59;5.45;;;4.22;;
13520;SDS011;6832;51.186;3.236;2022-08-16T13:01:30;6.72;;;3.30;;
13520;SDS011;6832;51.186;3.236;2022-08-16T13:04:00;5.20;;;4.05;;
13520;SDS011;6832;51.186;3.236;2022-08-16T13:06:38;4.88;;;3.25;;
13520;SDS011;6832;51.186;3.236;2022-08-16T13:09:26;6.95;;;3.35;;
13520;SDS011;6832;51.186;3.236;2022-08-16T13:12:24;3.20;;;2.90;;
13520;SDS011;6832;51.186;3.236;2022-08-16T13:15:20;4.03;;;2.83;;
13520;SDS011;6832;51.186;3.236;2022-08-16T13:17:55;7.28;;;4.03;;
13520;SDS011;6832;51.186;3.236;2022-08-16T13:20:29;7.07;;;3.75;;
13520;SDS011;6832;51.186;3.236;2022-08-16T13:23:01;4.38;;;2.95;;
13520;SDS011;6832;51.186;3.236;2022-08-16T13:25:37;3.33;;;3.03;;
13520;SDS011;6832;51.186;3.236;2022-08-16T13:28:28;4.07;;;3.65;;
13520;SDS011;6832;51.186;3.236;2022-08-16T13:31:01;5.97;;;4.30;;
13520;SDS011;6832;51.186;3.236;2022-08-16T13:33:40;8.80;;;4.15;;
13520;SDS011;6832;51.186;3.236;2022-08-16T13:36:14;7.70;;;3.88;;
13520;SDS011;6832;51.186;3.236;2022-08-16T13:39:12;7.55;;;4.15;;
13520;SDS011;6832;51.186;3.236;2022-08-16T13:41:44;6.03;;;3.55;;
13520;SDS011;6832;51.186;3.236;2022-08-16T13:44:14;3.55;;;3.17;;
13520;SDS011;6832;51.186;3.236;2022-08-16T13:46:49;3.85;;;3.40;;
13520;SDS011;6832;51.186;3.236;2022-08-16T13:49:16;8.85;;;4.90;;
13520;SDS011;6832;51.186;3.236;2022-08-16T13:51:48;7.63;;;5.55;;
13520;SDS011;6832;51.186;3.236;2022-08-16T13:54:24;6.72;;;4.18;;
13520;SDS011;6832;51.186;3.236;2022-08-16T13:56:59;5.28;;;4.07;;
13520;SDS011;6832;51.186;3.236;2022-08-16T13:59:39;5.28;;;4.78;;
13520;SDS011;6832;51.186;3.236;2022-08-16T14:02:07;6.85;;;5.47;;
13520;SDS011;6832;51.186;3.236;2022-08-16T14:04:36;5.25;;;4.60;;
13520;SDS011;6832;51.186;3.236;2022-08-16T14:07:15;8.50;;;5.72;;
13520;SDS011;6832;51.186;3.236;2022-08-16T14:09:45;8.80;;;4.95;;
13520;SDS011;6832;51.186;3.236;2022-08-16T14:15:07;7.00;;;4.20;;
13520;SDS011;6832;51.186;3.236;2022-08-16T14:20:20;9.00;;;3.70;;
13520;SDS011;6832;51.186;3.236;2022-08-16T14:22:53;7.10;;;4.70;;
13520;SDS011;6832;51.186;3.236;2022-08-16T14:25:25;8.02;;;4.97;;
13520;SDS011;6832;51.186;3.236;2022-08-16T14:30:34;6.50;;;3.92;;
13520;SDS011;6832;51.186;3.236;2022-08-16T14:33:03;16.67;;;5.43;;
13520;SDS011;6832;51.186;3.236;2022-08-16T14:35:36;10.57;;;4.75;;
13520;SDS011;6832;51.186;3.236;2022-08-16T14:38:10;7.03;;;4.53;;
13520;SDS011;6832;51.186;3.236;2022-08-16T14:40:43;5.05;;;4.55;;
13520;SDS011;6832;51.186;3.236;2022-08-16T14:43:28;6.28;;;4.20;;
13520;SDS011;6832;51.186;3.236;2022-08-16T14:46:19;11.88;;;6.15;;
13520;SDS011;6832;51.186;3.236;2022-08-16T14:48:46;11.00;;;5.60;;
13520;SDS011;6832;51.186;3.236;2022-08-16T14:51:14;8.85;;;5.78;;
13520;SDS011;6832;51.186;3.236;2022-08-16T14:53:42;12.20;;;6.10;;
13520;SDS011;6832;51.186;3.236;2022-08-16T14:56:10;9.80;;;6.95;;
13520;SDS011;6832;51.186;3.236;2022-08-16T14:58:40;19.58;;;10.85;;
13520;SDS011;6832;51.186;3.236;2022-08-16T15:01:07;12.93;;;7.77;;
13520;SDS011;6832;51.186;3.236;2022-08-16T15:03:40;9.83;;;6.93;;
13520;SDS011;6832;51.186;3.236;2022-08-16T15:06:08;9.77;;;7.70;;
13520;SDS011;6832;51.186;3.236;2022-08-16T15:08:36;15.23;;;9.23;;
13520;SDS011;6832;51.186;3.236;2022-08-16T15:11:03;10.57;;;8.50;;
13520;SDS011;6832;51.186;3.236;2022-08-16T15:13:31;13.47;;;9.87;;
13520;SDS011;6832;51.186;3.236;2022-08-16T15:15:58;12.53;;;8.80;;
13520;SDS011;6832;51.186;3.236;2022-08-16T15:18:25;11.73;;;8.43;;
13520;SDS011;6832;51.186;3.236;2022-08-16T15:20:55;12.97;;;9.13;;
13520;SDS011;6832;51.186;3.236;2022-08-16T15:23:23;10.03;;;7.37;;
13520;SDS011;6832;51.186;3.236;2022-08-16T15:25:53;11.93;;;8.80;;
13520;SDS011;6832;51.186;3.236;2022-08-16T15:28:22;12.10;;;8.93;;
13520;SDS011;6832;51.186;3.236;2022-08-16T15:33:40;11.43;;;8.57;;
13520;SDS011;6832;51.186;3.236;2022-08-16T15:36:10;11.73;;;8.60;;
13520;SDS011;6832;51.186;3.236;2022-08-16T15:38:42;16.20;;;12.17;;
13520;SDS011;6832;51.186;3.236;2022-08-16T15:44:24;9.80;;;8.47;;
13520;SDS011;6832;51.186;3.236;2022-08-16T15:46:55;12.23;;;8.90;;
13520;SDS011;6832;51.186;3.236;2022-08-16T15:49:23;11.80;;;9.67;;
13520;SDS011;6832;51.186;3.236;2022-08-16T15:51:53;15.57;;;9.80;;
13520;SDS011;6832;51.186;3.236;2022-08-16T15:54:20;14.73;;;9.60;;
13520;SDS011;6832;51.186;3.236;2022-08-16T15:56:47;14.53;;;9.93;;
13520;SDS011;6832;51.186;3.236;2022-08-16T15:59:19;12.67;;;9.93;;
13520;SDS011;6832;51.186;3.236;2022-08-16T16:01:46;13.50;;;10.83;;
13520;SDS011;6832;51.186;3.236;2022-08-16T16:04:15;12.20;;;10.50;;
13520;SDS011;6832;51.186;3.236;2022-08-16T16:06:43;15.20;;;11.30;;
13520;SDS011;6832;51.186;3.236;2022-08-16T16:09:16;14.77;;;10.60;;
13520;SDS011;6832;51.186;3.236;2022-08-16T16:11:44;13.17;;;10.60;;
13520;SDS011;6832;51.186;3.236;2022-08-16T16:14:13;11.40;;;9.47;;
13520;SDS011;6832;51.186;3.236;2022-08-16T16:16:41;19.10;;;12.03;;
13520;SDS011;6832;51.186;3.236;2022-08-16T16:19:11;16.00;;;11.57;;
13520;SDS011;6832;51.186;3.236;2022-08-16T16:21:38;22.67;;;13.97;;
13520;SDS011;6832;51.186;3.236;2022-08-16T16:24:06;15.33;;;12.33;;
13520;SDS011;6832;51.186;3.236;2022-08-16T16:26:36;14.00;;;11.57;;
13520;SDS011;6832;51.186;3.236;2022-08-16T16:29:12;11.83;;;10.23;;
13520;SDS011;6832;51.186;3.236;2022-08-16T16:31:39;14.67;;;12.27;;
13520;SDS011;6832;51.186;3.236;2022-08-16T16:34:09;16.27;;;12.67;;
13520;SDS011;6832;51.186;3.236;2022-08-16T16:36:37;18.07;;;13.23;;
13520;SDS011;6832;51.186;3.236;2022-08-16T16:39:06;16.43;;;11.90;;
13520;SDS011;6832;51.186;3.236;2022-08-16T16:41:37;16.00;;;12.33;;
13520;SDS011;6832;51.186;3.236;2022-08-16T16:44:05;13.13;;;10.37;;
13520;SDS011;6832;51.186;3.236;2022-08-16T16:46:33;11.77;;;9.87;;
13520;SDS011;6832;51.186;3.236;2022-08-16T16:49:03;13.77;;;9.87;;
13520;SDS011;6832;51.186;3.236;2022-08-16T16:51:33;14.13;;;10.30;;
13520;SDS011;6832;51.186;3.236;2022-08-16T16:54:05;14.63;;;10.47;;
13520;SDS011;6832;51.186;3.236;2022-08-16T16:56:33;18.07;;;11.80;;
13520;SDS011;6832;51.186;3.236;2022-08-16T16:59:05;15.17;;;9.73;;
13520;SDS011;6832;51.186;3.236;2022-08-16T17:01:36;15.03;;;10.50;;
13520;SDS011;6832;51.186;3.236;2022-08-16T17:07:04;10.40;;;8.47;;
13520;SDS011;6832;51.186;3.236;2022-08-16T17:09:38;11.50;;;8.80;;
13520;SDS011;6832;51.186;3.236;2022-08-16T17:12:06;20.20;;;11.80;;